sensor_id;sensor_type;location;lat;lon;timestamp;pressure;altitude;pressure_sealevel;temperature;humidity
69247;BME280;56358;56.328;43.992;2023-02-05T00:00:12;101477.34;;;-3.92;73.57
69247;BME280;56358;56.328;43.992;2023-02-05T00:02:14;101482.59;;;-3.87;73.65
69247;BME280;56358;56.328;43.992;2023-02-05T00:04:15;101495.69;;;-3.87;73.43
69247;BME280;56358;56.328;43.992;2023-02-05T00:06:15;101486.94;;;-3.88;73.07
69247;BME280;56358;56.328;43.992;2023-02-05T00:08:16;101485.22;;;-3.87;73.50
69247;BME280;56358;56.328;43.992;2023-02-05T00:10:17;101480.84;;;-3.87;72.88
69247;BME280;56358;56.328;43.992;2023-02-05T00:12:17;101495.66;;;-3.81;72.81
69247;BME280;56358;56.328;43.992;2023-02-05T00:14:18;101400.59;;;-4.39;72.42
69247;BME280;56358;56.328;43.992;2023-02-05T00:16:20;101487.81;;;-3.92;72.53
69247;BME280;56358;56.328;43.992;2023-02-05T00:18:21;101486.97;;;-3.94;72.89
69247;BME280;56358;56.328;43.992;2023-02-05T00:20:21;101491.31;;;-3.94;72.61
69247;BME280;56358;56.328;43.992;2023-02-05T00:22:22;101435.50;;;-4.30;72.91
69247;BME280;56358;56.328;43.992;2023-02-05T00:24:23;101472.16;;;-4.07;72.74
69247;BME280;56358;56.328;43.992;2023-02-05T00:26:23;101502.69;;;-3.92;72.89
69247;BME280;56358;56.328;43.992;2023-02-05T00:28:24;101491.31;;;-4.02;72.89
69247;BME280;56358;56.328;43.992;2023-02-05T00:30:25;101507.91;;;-3.97;72.86
69247;BME280;56358;56.328;43.992;2023-02-05T00:32:25;101492.22;;;-4.09;72.93
69247;BME280;56358;56.328;43.992;2023-02-05T00:34:26;101393.66;;;-4.75;73.10
69247;BME280;56358;56.328;43.992;2023-02-05T00:36:26;101439.88;;;-4.57;73.45
69247;BME280;56358;56.328;43.992;2023-02-05T00:38:27;101507.06;;;-4.19;73.30
69247;BME280;56358;56.328;43.992;2023-02-05T00:40:28;101477.41;;;-4.33;73.74
69247;BME280;56358;56.328;43.992;2023-02-05T00:42:29;101475.66;;;-4.41;73.72
69247;BME280;56358;56.328;43.992;2023-02-05T00:44:29;101496.63;;;-4.21;73.92
69247;BME280;56358;56.328;43.992;2023-02-05T00:46:30;101495.69;;;-4.18;73.82
69247;BME280;56358;56.328;43.992;2023-02-05T00:48:31;101461.69;;;-4.36;73.71
69247;BME280;56358;56.328;43.992;2023-02-05T00:50:32;101502.69;;;-4.18;73.75
69247;BME280;56358;56.328;43.992;2023-02-05T00:52:33;101489.59;;;-4.15;73.63
69247;BME280;56358;56.328;43.992;2023-02-05T00:54:33;101488.72;;;-4.16;73.76
69247;BME280;56358;56.328;43.992;2023-02-05T00:56:34;101487.00;;;-4.14;73.47
69247;BME280;56358;56.328;43.992;2023-02-05T00:58:35;101425.91;;;-4.55;73.59
69247;BME280;56358;56.328;43.992;2023-02-05T01:00:35;101498.34;;;-4.16;73.63
69247;BME280;56358;56.328;43.992;2023-02-05T01:02:36;101524.53;;;-4.19;73.66
69247;BME280;56358;56.328;43.992;2023-02-05T01:04:36;101485.25;;;-4.29;73.89
69247;BME280;56358;56.328;43.992;2023-02-05T01:06:37;101495.72;;;-4.35;74.11
69247;BME280;56358;56.328;43.992;2023-02-05T01:08:37;101476.53;;;-4.43;74.03
69247;BME280;56358;56.328;43.992;2023-02-05T01:10:47;101486.13;;;-4.39;74.34
69247;BME280;56358;56.328;43.992;2023-02-05T01:12:49;101493.09;;;-4.40;74.42
69247;BME280;56358;56.328;43.992;2023-02-05T01:14:50;101489.63;;;-4.43;74.84
69247;BME280;56358;56.328;43.992;2023-02-05T01:16:50;101489.63;;;-4.42;74.88
69247;BME280;56358;56.328;43.992;2023-02-05T01:18:51;101492.25;;;-4.42;74.40
69247;BME280;56358;56.328;43.992;2023-02-05T01:20:55;101489.63;;;-4.43;74.79
69247;BME280;56358;56.328;43.992;2023-02-05T01:22:56;101507.94;;;-4.43;74.91
69247;BME280;56358;56.328;43.992;2023-02-05T01:24:56;101503.56;;;-4.41;74.39
69247;BME280;56358;56.328;43.992;2023-02-05T01:26:57;101501.84;;;-4.41;74.29
69247;BME280;56358;56.328;43.992;2023-02-05T01:28:58;101422.41;;;-4.94;74.73
69247;BME280;56358;56.328;43.992;2023-02-05T01:30:58;101524.53;;;-4.47;74.80
69247;BME280;56358;56.328;43.992;2023-02-05T01:32:59;101506.19;;;-4.40;74.79
69247;BME280;56358;56.328;43.992;2023-02-05T01:35:00;101507.94;;;-4.37;74.62
69247;BME280;56358;56.328;43.992;2023-02-05T01:37:01;101537.63;;;-4.35;74.43
69247;BME280;56358;56.328;43.992;2023-02-05T01:39:01;101416.31;;;-4.91;74.16
69247;BME280;56358;56.328;43.992;2023-02-05T01:41:02;101507.94;;;-4.35;74.35
69247;BME280;56358;56.328;43.992;2023-02-05T01:43:02;101487.88;;;-4.52;74.54
69247;BME280;56358;56.328;43.992;2023-02-05T01:47:22;101447.72;;;-4.90;74.89
69247;BME280;56358;56.328;43.992;2023-02-05T01:49:41;101515.81;;;-4.43;75.15
69247;BME280;56358;56.328;43.992;2023-02-05T01:51:44;101412.81;;;-5.06;74.83
69247;BME280;56358;56.328;43.992;2023-02-05T01:53:48;101510.56;;;-4.48;74.89
69247;BME280;56358;56.328;43.992;2023-02-05T01:56:01;101445.09;;;-4.82;75.15
69247;BME280;56358;56.328;43.992;2023-02-05T01:58:03;101514.03;;;-4.41;74.92
69247;BME280;56358;56.328;43.992;2023-02-05T02:00:05;101507.03;;;-4.51;75.02
69247;BME280;56358;56.328;43.992;2023-02-05T02:02:06;101498.31;;;-4.49;74.95
69247;BME280;56358;56.328;43.992;2023-02-05T02:04:09;101506.19;;;-4.44;74.90
69247;BME280;56358;56.328;43.992;2023-02-05T02:06:10;101507.94;;;-4.54;74.86
69247;BME280;56358;56.328;43.992;2023-02-05T02:08:12;101509.66;;;-4.55;74.96
69247;BME280;56358;56.328;43.992;2023-02-05T02:10:14;101507.91;;;-4.57;74.79
69247;BME280;56358;56.328;43.992;2023-02-05T02:12:21;101502.66;;;-4.65;75.08
69247;BME280;56358;56.328;43.992;2023-02-05T02:14:25;101502.69;;;-4.66;75.19
69247;BME280;56358;56.328;43.992;2023-02-05T02:16:29;101358.66;;;-5.55;75.09
69247;BME280;56358;56.328;43.992;2023-02-05T02:18:30;101512.28;;;-4.68;75.29
69247;BME280;56358;56.328;43.992;2023-02-05T02:20:35;101513.16;;;-4.71;75.76
69247;BME280;56358;56.328;43.992;2023-02-05T02:25:41;101436.31;;;-5.30;75.79
69247;BME280;56358;56.328;43.992;2023-02-05T02:28:09;101524.47;;;-4.75;75.61
69247;BME280;56358;56.328;43.992;2023-02-05T02:30:24;101459.84;;;-5.13;75.67
69247;BME280;56358;56.328;43.992;2023-02-05T02:34:48;101536.69;;;-4.69;75.72
69247;BME280;56358;56.328;43.992;2023-02-05T02:37:02;101527.97;;;-4.67;75.62
69247;BME280;56358;56.328;43.992;2023-02-05T02:39:16;101537.56;;;-4.69;75.47
69247;BME280;56358;56.328;43.992;2023-02-05T02:41:30;101531.47;;;-4.73;75.51
69247;BME280;56358;56.328;43.992;2023-02-05T02:43:54;101555.88;;;-4.71;75.42
69247;BME280;56358;56.328;43.992;2023-02-05T02:46:04;101534.94;;;-4.71;75.27
69247;BME280;56358;56.328;43.992;2023-02-05T02:48:06;101538.41;;;-4.73;75.17
69247;BME280;56358;56.328;43.992;2023-02-05T02:50:22;101534.91;;;-4.78;75.45
69247;BME280;56358;56.328;43.992;2023-02-05T02:52:25;101445.03;;;-5.22;75.53
69247;BME280;56358;56.328;43.992;2023-02-05T02:54:26;101514.00;;;-4.88;75.22
69247;BME280;56358;56.328;43.992;2023-02-05T02:56:29;101531.47;;;-4.69;75.28
69247;BME280;56358;56.328;43.992;2023-02-05T02:58:36;101473.84;;;-4.99;75.18
69247;BME280;56358;56.328;43.992;2023-02-05T03:00:40;101521.00;;;-4.69;75.01
69247;BME280;56358;56.328;43.992;2023-02-05T03:02:44;101535.81;;;-4.64;74.95
69247;BME280;56358;56.328;43.992;2023-02-05T03:04:55;101544.56;;;-4.63;74.98
69247;BME280;56358;56.328;43.992;2023-02-05T03:07:04;101531.47;;;-4.69;75.22
69247;BME280;56358;56.328;43.992;2023-02-05T03:09:12;101534.09;;;-4.62;75.04
69247;BME280;56358;56.328;43.992;2023-02-05T03:11:17;101526.25;;;-4.63;75.16
69247;BME280;56358;56.328;43.992;2023-02-05T03:13:18;101453.78;;;-5.15;74.87
69247;BME280;56358;56.328;43.992;2023-02-05T03:15:18;101531.47;;;-4.68;74.74
69247;BME280;56358;56.328;43.992;2023-02-05T03:17:20;101535.81;;;-4.73;75.10
69247;BME280;56358;56.328;43.992;2023-02-05T03:19:21;101534.91;;;-4.78;75.20
69247;BME280;56358;56.328;43.992;2023-02-05T03:21:27;101536.69;;;-4.83;75.25
69247;BME280;56358;56.328;43.992;2023-02-05T03:23:29;101520.09;;;-4.87;75.69
69247;BME280;56358;56.328;43.992;2023-02-05T03:25:29;101529.72;;;-4.69;75.47
69247;BME280;56358;56.328;43.992;2023-02-05T03:27:30;101531.47;;;-4.65;75.26
69247;BME280;56358;56.328;43.992;2023-02-05T03:29:35;101529.72;;;-4.69;75.09
69247;BME280;56358;56.328;43.992;2023-02-05T03:31:53;101533.22;;;-4.70;74.83
69247;BME280;56358;56.328;43.992;2023-02-05T03:36:15;101458.09;;;-5.16;75.13
69247;BME280;56358;56.328;43.992;2023-02-05T03:45:33;101542.81;;;-4.52;74.37
69247;BME280;56358;56.328;43.992;2023-02-05T03:52:16;101484.25;;;-5.17;74.96
69247;BME280;56358;56.328;43.992;2023-02-05T03:59:00;101538.44;;;-4.70;74.92
69247;BME280;56358;56.328;43.992;2023-02-05T04:01:02;101555.00;;;-4.82;74.95
69247;BME280;56358;56.328;43.992;2023-02-05T04:03:03;101517.41;;;-5.06;74.97
69247;BME280;56358;56.328;43.992;2023-02-05T04:05:04;101471.13;;;-5.34;75.57
69247;BME280;56358;56.328;43.992;2023-02-05T04:07:05;101506.03;;;-5.18;75.42
69247;BME280;56358;56.328;43.992;2023-02-05T04:09:06;101532.25;;;-5.01;75.03
69247;BME280;56358;56.328;43.992;2023-02-05T04:11:09;101520.03;;;-5.04;74.96
69247;BME280;56358;56.328;43.992;2023-02-05T04:13:10;101554.97;;;-4.91;74.92
69247;BME280;56358;56.328;43.992;2023-02-05T04:15:11;101554.06;;;-4.95;75.17
69247;BME280;56358;56.328;43.992;2023-02-05T04:17:12;101545.28;;;-5.14;75.09
69247;BME280;56358;56.328;43.992;2023-02-05T04:19:12;101544.38;;;-5.19;75.34
69247;BME280;56358;56.328;43.992;2023-02-05T04:21:13;101549.63;;;-5.17;75.39
69247;BME280;56358;56.328;43.992;2023-02-05T04:23:14;101560.97;;;-5.14;75.73
69247;BME280;56358;56.328;43.992;2023-02-05T04:25:14;101549.56;;;-5.27;75.86
69247;BME280;56358;56.328;43.992;2023-02-05T04:27:15;101566.19;;;-5.15;76.00
69247;BME280;56358;56.328;43.992;2023-02-05T04:29:16;101558.31;;;-5.28;75.77
69247;BME280;56358;56.328;43.992;2023-02-05T04:31:16;101543.47;;;-5.29;76.00
69247;BME280;56358;56.328;43.992;2023-02-05T04:33:17;101491.00;;;-5.69;76.04
69247;BME280;56358;56.328;43.992;2023-02-05T04:35:17;101467.50;;;-5.67;75.89
69247;BME280;56358;56.328;43.992;2023-02-05T04:37:18;101562.72;;;-5.13;75.87
69247;BME280;56358;56.328;43.992;2023-02-05T04:39:19;101459.63;;;-5.75;75.54
69247;BME280;56358;56.328;43.992;2023-02-05T04:41:19;101562.72;;;-5.13;75.45
69247;BME280;56358;56.328;43.992;2023-02-05T04:43:20;101553.09;;;-5.22;75.34
69247;BME280;56358;56.328;43.992;2023-02-05T04:45:20;101568.81;;;-5.15;75.54
69247;BME280;56358;56.328;43.992;2023-02-05T04:47:22;101555.69;;;-5.26;75.52
69247;BME280;56358;56.328;43.992;2023-02-05T04:49:22;101553.94;;;-5.27;75.45
69247;BME280;56358;56.328;43.992;2023-02-05T04:51:23;101570.53;;;-5.17;75.46
69247;BME280;56358;56.328;43.992;2023-02-05T04:53:24;101523.34;;;-5.50;75.42
69247;BME280;56358;56.328;43.992;2023-02-05T04:55:25;101581.03;;;-5.11;75.64
69247;BME280;56358;56.328;43.992;2023-02-05T04:57:25;101579.28;;;-5.14;75.38
69247;BME280;56358;56.328;43.992;2023-02-05T04:59:26;101492.78;;;-5.60;75.25
69247;BME280;56358;56.328;43.992;2023-02-05T05:01:29;101570.56;;;-5.07;75.20
69247;BME280;56358;56.328;43.992;2023-02-05T05:03:30;101490.22;;;-5.52;75.25
69247;BME280;56358;56.328;43.992;2023-02-05T05:05:31;101580.22;;;-4.96;75.06
69247;BME280;56358;56.328;43.992;2023-02-05T05:07:33;101570.56;;;-5.07;74.80
69247;BME280;56358;56.328;43.992;2023-02-05T05:09:35;101583.69;;;-5.00;74.88
69247;BME280;56358;56.328;43.992;2023-02-05T05:11:35;101581.06;;;-5.00;75.25
69247;BME280;56358;56.328;43.992;2023-02-05T05:13:36;101587.16;;;-5.06;75.39
69247;BME280;56358;56.328;43.992;2023-02-05T05:15:37;101580.19;;;-5.04;75.24
69247;BME280;56358;56.328;43.992;2023-02-05T05:17:38;101486.75;;;-5.53;74.78
69247;BME280;56358;56.328;43.992;2023-02-05T05:19:38;101589.81;;;-4.97;75.04
69247;BME280;56358;56.328;43.992;2023-02-05T05:21:39;101580.22;;;-4.96;74.87
69247;BME280;56358;56.328;43.992;2023-02-05T05:23:40;101568.81;;;-5.14;74.87
69247;BME280;56358;56.328;43.992;2023-02-05T05:25:45;101583.69;;;-4.96;75.14
69247;BME280;56358;56.328;43.992;2023-02-05T05:27:46;101577.56;;;-5.07;75.06
69247;BME280;56358;56.328;43.992;2023-02-05T05:29:47;101597.66;;;-4.92;75.07
69247;BME280;56358;56.328;43.992;2023-02-05T05:31:51;101558.34;;;-5.17;75.22
69247;BME280;56358;56.328;43.992;2023-02-05T05:33:52;101507.69;;;-5.42;75.26
69247;BME280;56358;56.328;43.992;2023-02-05T05:35:53;101578.47;;;-5.03;75.05
69247;BME280;56358;56.328;43.992;2023-02-05T05:37:58;101602.91;;;-4.92;74.87
69247;BME280;56358;56.328;43.992;2023-02-05T05:39:59;101583.72;;;-4.86;74.81
69247;BME280;56358;56.328;43.992;2023-02-05T05:42:18;101587.22;;;-4.89;74.85
69247;BME280;56358;56.328;43.992;2023-02-05T05:44:37;101600.34;;;-4.77;74.59
69247;BME280;56358;56.328;43.992;2023-02-05T05:46:37;101597.75;;;-4.75;74.45
69247;BME280;56358;56.328;43.992;2023-02-05T05:48:38;101599.47;;;-4.79;74.33
69247;BME280;56358;56.328;43.992;2023-02-05T05:50:38;101602.97;;;-4.75;74.30
69247;BME280;56358;56.328;43.992;2023-02-05T05:52:39;101600.34;;;-4.77;74.17
69247;BME280;56358;56.328;43.992;2023-02-05T05:54:40;101615.19;;;-4.65;74.38
69247;BME280;56358;56.328;43.992;2023-02-05T05:56:40;101526.13;;;-5.14;74.28
69247;BME280;56358;56.328;43.992;2023-02-05T05:58:41;101609.06;;;-4.76;74.25
69247;BME280;56358;56.328;43.992;2023-02-05T06:00:42;101631.75;;;-4.77;74.14
69247;BME280;56358;56.328;43.992;2023-02-05T06:02:43;101616.91;;;-4.75;74.21
69247;BME280;56358;56.328;43.992;2023-02-05T06:04:43;101610.81;;;-4.77;74.37
69247;BME280;56358;56.328;43.992;2023-02-05T06:06:45;101616.03;;;-4.80;74.10
69247;BME280;56358;56.328;43.992;2023-02-05T06:08:45;101594.22;;;-4.83;74.22
69247;BME280;56358;56.328;43.992;2023-02-05T06:10:46;101611.69;;;-4.75;74.18
69247;BME280;56358;56.328;43.992;2023-02-05T06:12:46;101588.03;;;-5.04;74.15
69247;BME280;56358;56.328;43.992;2023-02-05T06:14:47;101631.72;;;-4.84;74.28
69247;BME280;56358;56.328;43.992;2023-02-05T06:16:48;101621.25;;;-4.78;74.27
69247;BME280;56358;56.328;43.992;2023-02-05T06:18:48;101617.78;;;-4.82;74.41
69247;BME280;56358;56.328;43.992;2023-02-05T06:20:49;101600.25;;;-5.00;74.23
69247;BME280;56358;56.328;43.992;2023-02-05T06:22:50;101628.25;;;-4.82;74.49
69247;BME280;56358;56.328;43.992;2023-02-05T06:24:51;101537.31;;;-5.42;74.25
69247;BME280;56358;56.328;43.992;2023-02-05T06:26:51;101626.41;;;-5.00;74.61
69247;BME280;56358;56.328;43.992;2023-02-05T06:28:52;101632.53;;;-4.98;75.00
69247;BME280;56358;56.328;43.992;2023-02-05T06:30:56;101556.50;;;-5.38;74.78
69247;BME280;56358;56.328;43.992;2023-02-05T06:32:57;101544.28;;;-5.38;74.54
69247;BME280;56358;56.328;43.992;2023-02-05T06:34:57;101612.47;;;-4.96;74.59
69247;BME280;56358;56.328;43.992;2023-02-05T06:36:58;101637.84;;;-4.78;74.25
69247;BME280;56358;56.328;43.992;2023-02-05T06:38:58;101635.19;;;-4.85;74.05
69247;BME280;56358;56.328;43.992;2023-02-05T06:40:59;101639.56;;;-4.86;74.28
69247;BME280;56358;56.328;43.992;2023-02-05T06:42:59;101649.22;;;-4.73;74.30
69247;BME280;56358;56.328;43.992;2023-02-05T06:45:00;101654.44;;;-4.68;74.27
69247;BME280;56358;56.328;43.992;2023-02-05T06:47:01;101655.34;;;-4.64;73.89
69247;BME280;56358;56.328;43.992;2023-02-05T06:49:02;101655.34;;;-4.61;73.89
69247;BME280;56358;56.328;43.992;2023-02-05T06:51:03;101652.75;;;-4.57;73.90
69247;BME280;56358;56.328;43.992;2023-02-05T06:53:04;101653.63;;;-4.58;73.67
69247;BME280;56358;56.328;43.992;2023-02-05T06:55:04;101671.88;;;-4.72;73.37
69247;BME280;56358;56.328;43.992;2023-02-05T06:57:05;101568.72;;;-5.34;73.50
69247;BME280;56358;56.328;43.992;2023-02-05T06:59:06;101659.59;;;-4.88;73.53
69247;BME280;56358;56.328;43.992;2023-02-05T07:01:06;101655.22;;;-4.94;74.43
69247;BME280;56358;56.328;43.992;2023-02-05T07:03:07;101656.13;;;-4.87;74.43
69247;BME280;56358;56.328;43.992;2023-02-05T07:05:08;101663.09;;;-4.88;74.14
69247;BME280;56358;56.328;43.992;2023-02-05T07:07:09;101665.69;;;-4.92;73.98
69247;BME280;56358;56.328;43.992;2023-02-05T07:09:10;101659.53;;;-4.99;73.69
69247;BME280;56358;56.328;43.992;2023-02-05T07:11:11;101664.81;;;-4.93;73.89
69247;BME280;56358;56.328;43.992;2023-02-05T07:13:12;101665.66;;;-4.97;74.11
69247;BME280;56358;56.328;43.992;2023-02-05T07:15:13;101577.38;;;-5.43;73.98
69247;BME280;56358;56.328;43.992;2023-02-05T07:17:13;101632.47;;;-5.07;73.79
69247;BME280;56358;56.328;43.992;2023-02-05T07:19:14;101650.00;;;-4.91;73.58
69247;BME280;56358;56.328;43.992;2023-02-05T07:21:15;101648.28;;;-4.85;73.37
69247;BME280;56358;56.328;43.992;2023-02-05T07:23:16;101677.16;;;-4.64;73.22
69247;BME280;56358;56.328;43.992;2023-02-05T07:25:17;101661.41;;;-4.73;72.78
69247;BME280;56358;56.328;43.992;2023-02-05T07:27:17;101648.28;;;-4.85;72.74
69247;BME280;56358;56.328;43.992;2023-02-05T07:29:18;101671.09;;;-4.57;72.58
69247;BME280;56358;56.328;43.992;2023-02-05T07:31:19;101645.69;;;-4.81;72.32
69247;BME280;56358;56.328;43.992;2023-02-05T07:33:19;101655.22;;;-4.94;72.20
69247;BME280;56358;56.328;43.992;2023-02-05T07:35:20;101678.00;;;-4.66;72.33
69247;BME280;56358;56.328;43.992;2023-02-05T07:37:20;101680.63;;;-4.68;72.27
69247;BME280;56358;56.328;43.992;2023-02-05T07:39:21;101671.00;;;-4.74;72.03
69247;BME280;56358;56.328;43.992;2023-02-05T07:41:22;101669.25;;;-4.73;72.13
69247;BME280;56358;56.328;43.992;2023-02-05T07:43:23;101677.19;;;-4.61;71.88
69247;BME280;56358;56.328;43.992;2023-02-05T07:45:24;101658.81;;;-4.70;71.38
69247;BME280;56358;56.328;43.992;2023-02-05T07:47:24;101682.47;;;-4.41;71.30
69247;BME280;56358;56.328;43.992;2023-02-05T07:49:25;101678.09;;;-4.40;70.60
69247;BME280;56358;56.328;43.992;2023-02-05T07:51:26;101688.63;;;-4.25;70.27
69247;BME280;56358;56.328;43.992;2023-02-05T07:53:27;101689.53;;;-4.15;70.03
69247;BME280;56358;56.328;43.992;2023-02-05T07:55:27;101698.25;;;-4.11;69.42
69247;BME280;56358;56.328;43.992;2023-02-05T07:57:28;101699.13;;;-4.22;69.09
69247;BME280;56358;56.328;43.992;2023-02-05T07:59:29;101690.41;;;-4.10;69.57
69247;BME280;56358;56.328;43.992;2023-02-05T08:01:29;101692.19;;;-4.06;68.91
69247;BME280;56358;56.328;43.992;2023-02-05T08:03:30;101667.69;;;-4.17;69.18
69247;BME280;56358;56.328;43.992;2023-02-05T08:05:31;101658.06;;;-4.19;68.37
69247;BME280;56358;56.328;43.992;2023-02-05T08:07:31;101690.44;;;-4.00;68.37
69247;BME280;56358;56.328;43.992;2023-02-05T08:09:32;101700.94;;;-3.90;68.08
69247;BME280;56358;56.328;43.992;2023-02-05T08:11:33;101676.44;;;-3.99;68.09
69247;BME280;56358;56.328;43.992;2023-02-05T08:13:34;101709.66;;;-3.89;67.57
69247;BME280;56358;56.328;43.992;2023-02-05T08:15:37;101702.66;;;-4.01;67.77
69247;BME280;56358;56.328;43.992;2023-02-05T08:17:38;101679.94;;;-4.02;67.44
69247;BME280;56358;56.328;43.992;2023-02-05T08:19:39;101702.66;;;-3.89;67.63
69247;BME280;56358;56.328;43.992;2023-02-05T08:21:41;101696.56;;;-3.92;67.72
69247;BME280;56358;56.328;43.992;2023-02-05T08:23:42;101622.25;;;-4.42;67.89
69247;BME280;56358;56.328;43.992;2023-02-05T08:25:43;101701.81;;;-3.89;67.67
69247;BME280;56358;56.328;43.992;2023-02-05T08:27:43;101622.25;;;-4.36;67.90
69247;BME280;56358;56.328;43.992;2023-02-05T08:29:47;101623.16;;;-4.32;67.40
69247;BME280;56358;56.328;43.992;2023-02-05T08:31:48;101710.56;;;-3.85;67.25
69247;BME280;56358;56.328;43.992;2023-02-05T08:33:48;101724.50;;;-3.85;67.25
69247;BME280;56358;56.328;43.992;2023-02-05T08:35:52;101713.16;;;-3.79;66.46
69247;BME280;56358;56.328;43.992;2023-02-05T08:37:52;101700.94;;;-3.82;66.51
69247;BME280;56358;56.328;43.992;2023-02-05T08:39:53;101707.94;;;-3.84;66.16
69247;BME280;56358;56.328;43.992;2023-02-05T08:41:53;101705.28;;;-3.79;66.06
69247;BME280;56358;56.328;43.992;2023-02-05T08:43:54;101624.03;;;-4.36;66.27
69247;BME280;56358;56.328;43.992;2023-02-05T08:45:55;101702.66;;;-3.93;66.49
69247;BME280;56358;56.328;43.992;2023-02-05T08:47:56;101701.81;;;-3.89;66.42
69247;BME280;56358;56.328;43.992;2023-02-05T08:49:56;101700.06;;;-3.82;66.68
69247;BME280;56358;56.328;43.992;2023-02-05T08:51:57;101626.66;;;-4.26;66.71
69247;BME280;56358;56.328;43.992;2023-02-05T08:53:58;101708.81;;;-3.74;66.73
69247;BME280;56358;56.328;43.992;2023-02-05T08:56:00;101642.34;;;-4.30;65.87
69247;BME280;56358;56.328;43.992;2023-02-05T08:58:01;101710.53;;;-3.93;65.96
69247;BME280;56358;56.328;43.992;2023-02-05T09:00:03;101704.41;;;-4.03;65.99
69247;BME280;56358;56.328;43.992;2023-02-05T09:02:04;101686.84;;;-4.33;66.43
69247;BME280;56358;56.328;43.992;2023-02-05T09:04:06;101708.72;;;-4.11;66.55
69247;BME280;56358;56.328;43.992;2023-02-05T09:06:09;101708.72;;;-4.11;66.29
69247;BME280;56358;56.328;43.992;2023-02-05T09:08:11;101707.00;;;-4.08;66.29
69247;BME280;56358;56.328;43.992;2023-02-05T09:10:12;101713.13;;;-4.01;66.17
69247;BME280;56358;56.328;43.992;2023-02-05T09:12:13;101707.03;;;-4.00;66.16
69247;BME280;56358;56.328;43.992;2023-02-05T09:14:14;101707.88;;;-3.98;66.12
69247;BME280;56358;56.328;43.992;2023-02-05T09:16:15;101704.41;;;-3.88;66.17
69247;BME280;56358;56.328;43.992;2023-02-05T09:18:15;101704.44;;;-3.81;65.82
69247;BME280;56358;56.328;43.992;2023-02-05T09:20:16;101625.78;;;-4.20;65.23
69247;BME280;56358;56.328;43.992;2023-02-05T09:22:17;101698.31;;;-3.73;65.05
69247;BME280;56358;56.328;43.992;2023-02-05T09:24:17;101704.44;;;-3.77;64.76
69247;BME280;56358;56.328;43.992;2023-02-05T09:26:18;101707.94;;;-3.62;64.49
69247;BME280;56358;56.328;43.992;2023-02-05T09:28:19;101697.44;;;-3.61;64.12
69247;BME280;56358;56.328;43.992;2023-02-05T09:30:20;101608.31;;;-4.21;64.37
69247;BME280;56358;56.328;43.992;2023-02-05T09:32:20;101610.06;;;-4.20;64.61
69247;BME280;56358;56.328;43.992;2023-02-05T09:34:21;101658.13;;;-3.95;64.11
69247;BME280;56358;56.328;43.992;2023-02-05T09:36:22;101673.84;;;-3.70;64.38
69247;BME280;56358;56.328;43.992;2023-02-05T09:38:23;101696.59;;;-3.63;64.08
69247;BME280;56358;56.328;43.992;2023-02-05T09:40:26;101706.19;;;-3.68;64.59
69247;BME280;56358;56.328;43.992;2023-02-05T09:42:35;101702.72;;;-3.55;64.99
69247;BME280;56358;56.328;43.992;2023-02-05T09:47:36;101698.34;;;-3.49;64.40
69247;BME280;56358;56.328;43.992;2023-02-05T09:51:49;101698.34;;;-3.48;64.22
69247;BME280;56358;56.328;43.992;2023-02-05T09:53:54;101689.59;;;-3.51;64.09
69247;BME280;56358;56.328;43.992;2023-02-05T09:55:57;101700.94;;;-3.65;64.04
69247;BME280;56358;56.328;43.992;2023-02-05T09:58:01;101698.34;;;-3.60;63.98
69247;BME280;56358;56.328;43.992;2023-02-05T10:00:27;101684.34;;;-3.61;63.84
69247;BME280;56358;56.328;43.992;2023-02-05T10:02:35;101705.31;;;-3.33;63.69
69247;BME280;56358;56.328;43.992;2023-02-05T10:04:37;101710.56;;;-3.30;62.64
69247;BME280;56358;56.328;43.992;2023-02-05T10:11:33;101728.06;;;-3.30;63.52
69247;BME280;56358;56.328;43.992;2023-02-05T10:13:43;101702.69;;;-3.34;63.08
69247;BME280;56358;56.328;43.992;2023-02-05T10:20:41;101707.94;;;-3.30;63.52
69247;BME280;56358;56.328;43.992;2023-02-05T10:23:06;101711.44;;;-3.34;63.97
69247;BME280;56358;56.328;43.992;2023-02-05T10:25:37;101721.94;;;-3.37;63.62
69247;BME280;56358;56.328;43.992;2023-02-05T10:28:13;101711.44;;;-3.40;63.62
69247;BME280;56358;56.328;43.992;2023-02-05T10:30:42;101711.44;;;-3.48;64.14
69247;BME280;56358;56.328;43.992;2023-02-05T10:32:57;101693.06;;;-3.63;64.40
69247;BME280;56358;56.328;43.992;2023-02-05T10:35:02;101728.03;;;-3.57;64.75
69247;BME280;56358;56.328;43.992;2023-02-05T10:37:15;101698.31;;;-3.62;64.57
69247;BME280;56358;56.328;43.992;2023-02-05T10:39:19;101707.06;;;-3.50;64.76
69247;BME280;56358;56.328;43.992;2023-02-05T10:41:25;101707.09;;;-3.54;64.33
69247;BME280;56358;56.328;43.992;2023-02-05T10:43:34;101711.44;;;-3.51;64.60
69247;BME280;56358;56.328;43.992;2023-02-05T10:45:38;101711.44;;;-3.53;64.47
69247;BME280;56358;56.328;43.992;2023-02-05T10:49:53;101705.31;;;-3.68;64.54
69247;BME280;56358;56.328;43.992;2023-02-05T10:51:56;101717.53;;;-3.55;63.94
69247;BME280;56358;56.328;43.992;2023-02-05T10:53:58;101693.09;;;-3.66;63.63
69247;BME280;56358;56.328;43.992;2023-02-05T10:56:00;101717.56;;;-3.60;64.41
69247;BME280;56358;56.328;43.992;2023-02-05T10:58:24;101705.34;;;-3.65;64.63
69247;BME280;56358;56.328;43.992;2023-02-05T11:00:28;101717.56;;;-3.61;64.51
69247;BME280;56358;56.328;43.992;2023-02-05T11:02:33;101691.31;;;-3.78;64.83
69247;BME280;56358;56.328;43.992;2023-02-05T11:06:50;101721.94;;;-3.69;64.51
69247;BME280;56358;56.328;43.992;2023-02-05T11:08:51;101719.31;;;-3.69;64.85
69247;BME280;56358;56.328;43.992;2023-02-05T11:10:52;101686.94;;;-3.90;64.71
69247;BME280;56358;56.328;43.992;2023-02-05T11:13:03;101715.78;;;-3.70;64.62
69247;BME280;56358;56.328;43.992;2023-02-05T11:15:04;101703.53;;;-3.83;64.72
69247;BME280;56358;56.328;43.992;2023-02-05T11:17:28;101556.78;;;-4.61;64.56
69247;BME280;56358;56.328;43.992;2023-02-05T11:19:30;101712.31;;;-3.72;65.08